createdAt,value
2017-11-20T00:01:17.909Z,81.30
2017-11-20T00:03:45.441Z,81.30
2017-11-20T00:06:25.059Z,81.00
2017-11-20T00:11:23.916Z,80.20
2017-11-20T00:13:51.540Z,80.50
2017-11-20T00:16:19.099Z,79.90
2017-11-20T00:18:46.637Z,79.80
2017-11-20T00:21:15.488Z,79.80
2017-11-20T00:23:43.012Z,80.20
2017-11-20T00:26:10.697Z,81.30
2017-11-20T00:28:38.257Z,81.80
2017-11-20T00:31:05.794Z,81.60
2017-11-20T00:33:33.334Z,81.80
2017-11-20T00:36:01.683Z,82.00
2017-11-20T00:38:29.203Z,81.90
2017-11-20T00:40:56.767Z,81.70
2017-11-20T00:43:24.326Z,81.10
2017-11-20T00:45:52.008Z,81.00
2017-11-20T00:48:19.597Z,80.50
2017-11-20T00:50:47.165Z,80.70
2017-11-20T00:53:16.480Z,80.80
2017-11-20T00:55:44.017Z,80.20
2017-11-20T00:58:11.600Z,80.10
2017-11-20T01:00:39.895Z,80.20
2017-11-20T01:03:07.465Z,80.10
2017-11-20T01:05:35.012Z,79.90
2017-11-20T01:08:02.541Z,80.10
2017-11-20T01:10:30.836Z,79.90
2017-11-20T01:12:58.388Z,79.90
2017-11-20T01:15:25.916Z,80.20
2017-11-20T01:17:53.456Z,80.00
2017-11-20T01:20:21.049Z,80.00
2017-11-20T01:22:49.341Z,80.10
2017-11-20T01:25:16.877Z,80.10
2017-11-20T01:27:44.673Z,79.90
2017-11-20T01:30:12.200Z,79.40
2017-11-20T01:32:39.740Z,79.60
2017-11-20T01:35:07.288Z,79.10
2017-11-20T01:37:34.816Z,79.80
2017-11-20T01:40:02.366Z,79.70
2017-11-20T01:42:29.942Z,80.20
2017-11-20T01:44:57.473Z,78.50
2017-11-20T01:47:25.002Z,78.60
2017-11-20T01:49:52.578Z,78.80
2017-11-20T01:52:20.877Z,78.60
2017-11-20T01:54:48.409Z,78.60
2017-11-20T01:57:16.467Z,78.20
2017-11-20T01:59:43.996Z,78.00
2017-11-20T02:02:11.523Z,78.40
2017-11-20T02:04:39.137Z,77.90
2017-11-20T02:07:06.699Z,77.70
2017-11-20T02:09:34.303Z,78.10
2017-11-20T02:12:01.853Z,78.00
2017-11-20T02:14:29.389Z,77.90
2017-11-20T02:16:56.916Z,77.70
2017-11-20T02:19:24.479Z,77.40
2017-11-20T02:21:52.011Z,76.90
2017-11-20T02:24:19.555Z,77.60
2017-11-20T02:26:47.171Z,77.70
2017-11-20T02:29:16.800Z,77.60
2017-11-20T02:31:44.333Z,77.70
2017-11-20T02:34:11.928Z,78.00
2017-11-20T02:36:39.480Z,77.30
2017-11-20T02:39:07.778Z,77.80
2017-11-20T02:41:35.326Z,77.70
2017-11-20T02:44:02.953Z,77.60
2017-11-20T02:46:30.503Z,77.50
2017-11-20T02:48:58.097Z,77.10
2017-11-20T02:51:26.389Z,77.40
2017-11-20T02:53:53.929Z,77.40
2017-11-20T02:56:22.280Z,77.60
2017-11-20T02:58:49.814Z,77.60
2017-11-20T03:01:17.388Z,77.40
2017-11-20T03:03:44.948Z,76.90
2017-11-20T03:06:12.493Z,77.50
2017-11-20T03:08:40.024Z,77.80
2017-11-20T03:11:07.617Z,77.00
2017-11-20T03:13:35.144Z,77.70
2017-11-20T03:16:02.681Z,77.70
2017-11-20T03:18:30.268Z,77.20
2017-11-20T03:20:57.801Z,77.70
2017-11-20T03:23:25.344Z,78.30
2017-11-20T03:25:52.900Z,76.80
2017-11-20T03:28:21.285Z,77.30
2017-11-20T03:30:50.628Z,77.10
2017-11-20T03:33:18.241Z,77.10
2017-11-20T03:35:45.783Z,77.20
2017-11-20T03:38:14.651Z,77.20
2017-11-20T03:40:42.973Z,77.50
2017-11-20T03:43:11.288Z,77.40
2017-11-20T03:45:38.810Z,77.40
2017-11-20T03:48:06.375Z,77.30
2017-11-20T03:50:34.669Z,77.10
2017-11-20T03:53:02.192Z,77.10
2017-11-20T03:55:30.127Z,77.30
2017-11-20T03:57:57.663Z,77.60
2017-11-20T04:00:25.189Z,77.20
2017-11-20T04:02:52.741Z,77.50
2017-11-20T04:05:21.049Z,77.70
2017-11-20T04:07:48.577Z,77.70
2017-11-20T04:10:16.553Z,77.80
2017-11-20T04:12:44.848Z,77.50
2017-11-20T04:15:12.372Z,77.50
2017-11-20T04:17:40.715Z,77.80
2017-11-20T04:20:08.251Z,77.70
2017-11-20T04:22:35.808Z,77.60
2017-11-20T04:25:03.358Z,77.70
2017-11-20T04:27:30.890Z,77.60
2017-11-20T04:29:58.412Z,77.40
2017-11-20T04:32:25.981Z,77.90
2017-11-20T04:34:53.536Z,77.70
2017-11-20T04:37:21.071Z,77.80
2017-11-20T04:39:48.696Z,78.00
2017-11-20T04:42:16.402Z,77.40
2017-11-20T04:44:43.945Z,77.80
2017-11-20T04:47:11.528Z,78.00
2017-11-20T04:49:39.066Z,78.10
2017-11-20T04:52:06.605Z,78.30
2017-11-20T04:54:34.168Z,77.90
2017-11-20T04:57:01.704Z,78.20
2017-11-20T04:59:29.996Z,77.70
2017-11-20T05:01:58.374Z,77.90
2017-11-20T05:04:27.575Z,77.90
2017-11-20T05:06:55.140Z,78.50
2017-11-20T05:09:22.766Z,78.30
2017-11-20T05:11:50.288Z,78.10
2017-11-20T05:14:17.832Z,77.80
2017-11-20T05:16:45.440Z,78.20
2017-11-20T05:19:24.366Z,78.30
2017-11-20T05:23:57.721Z,78.40
2017-11-20T05:26:25.308Z,78.40
2017-11-20T05:28:53.057Z,78.40
2017-11-20T05:31:21.057Z,78.60
2017-11-20T05:33:49.450Z,78.70
2017-11-20T05:36:17.220Z,78.60
2017-11-20T05:38:45.202Z,78.60
2017-11-20T05:41:13.812Z,78.60
2017-11-20T05:43:41.356Z,79.00
2017-11-20T05:46:09.270Z,79.70
2017-11-20T05:48:36.840Z,79.40
2017-11-20T05:51:05.162Z,79.00
2017-11-20T05:53:32.890Z,79.00
2017-11-20T05:56:00.428Z,78.80
2017-11-20T05:58:27.986Z,79.00
2017-11-20T06:00:55.564Z,79.30
2017-11-20T06:03:23.869Z,79.80
2017-11-20T06:05:51.404Z,79.80
2017-11-20T06:08:19.756Z,79.50
2017-11-20T06:10:47.291Z,79.40
2017-11-20T06:13:16.395Z,79.40
2017-11-20T06:15:43.944Z,79.40
2017-11-20T06:18:11.694Z,79.50
2017-11-20T06:20:39.328Z,79.40
2017-11-20T06:23:06.896Z,79.40
2017-11-20T06:25:34.437Z,79.90
2017-11-20T06:28:02.748Z,79.40
2017-11-20T06:30:30.333Z,79.40
2017-11-20T06:32:57.894Z,79.30
2017-11-20T06:35:26.051Z,79.70
2017-11-20T06:37:53.609Z,79.80
2017-11-20T06:40:21.144Z,80.10
2017-11-20T06:42:48.676Z,80.20
2017-11-20T06:45:16.477Z,80.10
2017-11-20T06:47:44.108Z,80.50
2017-11-20T06:50:11.644Z,80.20
2017-11-20T06:52:39.234Z,80.10
2017-11-20T06:55:06.771Z,79.60
2017-11-20T06:57:35.072Z,79.20
2017-11-20T07:00:02.628Z,79.20
2017-11-20T07:02:30.166Z,78.80
2017-11-20T07:04:58.455Z,78.80
2017-11-20T07:07:26.784Z,78.60
2017-11-20T07:09:54.352Z,78.60
2017-11-20T07:12:21.896Z,78.40
2017-11-20T07:14:49.511Z,78.10
2017-11-20T07:17:17.805Z,77.50
2017-11-20T07:19:45.345Z,77.50
2017-11-20T07:22:25.531Z,77.10
2017-11-20T07:30:45.122Z,76.50
2017-11-20T07:33:14.352Z,75.70
2017-11-20T07:35:48.161Z,75.80
2017-11-20T07:38:18.261Z,74.90
2017-11-20T07:40:57.569Z,74.70
2017-11-20T07:43:25.864Z,74.60
2017-11-20T07:45:53.400Z,74.60
2017-11-20T07:48:21.748Z,74.60
2017-11-20T07:50:49.284Z,75.20
2017-11-20T07:53:16.809Z,74.60
2017-11-20T07:55:44.365Z,75.10
2017-11-20T07:58:11.900Z,75.30
2017-11-20T08:00:40.193Z,74.90
2017-11-20T08:03:08.545Z,74.10
2017-11-20T08:05:36.081Z,74.10
2017-11-20T08:08:04.376Z,74.20
2017-11-20T08:10:31.972Z,74.20
2017-11-20T08:12:59.511Z,73.50
2017-11-20T08:15:27.803Z,73.40
2017-11-20T08:17:55.359Z,73.40
2017-11-20T08:20:22.888Z,73.50
2017-11-20T08:22:50.535Z,73.10
2017-11-20T08:25:18.112Z,72.70
2017-11-20T08:27:45.644Z,72.50
2017-11-20T08:30:25.774Z,71.20
2017-11-20T08:35:31.855Z,70.30
2017-11-20T08:37:59.534Z,71.40
2017-11-20T08:40:27.073Z,71.90
2017-11-20T08:42:54.651Z,72.30
2017-11-20T08:45:22.189Z,71.20
2017-11-20T08:47:49.712Z,71.40
2017-11-20T08:50:18.068Z,72.00
2017-11-20T08:52:45.597Z,72.00
2017-11-20T08:55:25.529Z,72.20
2017-11-20T09:06:28.117Z,72.20
2017-11-20T09:08:56.409Z,73.50
2017-11-20T09:11:24.705Z,73.40
2017-11-20T09:13:52.260Z,73.40
2017-11-20T09:16:19.779Z,72.40
2017-11-20T09:18:47.302Z,71.60
2017-11-20T09:21:15.488Z,72.30
2017-11-20T09:23:43.017Z,72.00
2017-11-20T09:26:10.812Z,72.20
2017-11-20T09:28:38.432Z,71.60
2017-11-20T09:31:05.960Z,71.80
2017-11-20T09:33:34.268Z,71.00
2017-11-20T09:36:01.828Z,71.00
2017-11-20T09:38:29.806Z,71.80
2017-11-20T09:40:57.400Z,70.60
2017-11-20T09:43:25.028Z,70.80
2017-11-20T09:45:52.572Z,71.20
2017-11-20T09:48:20.147Z,72.10
2017-11-20T09:50:47.811Z,71.20
2017-11-20T09:53:17.264Z,71.20
2017-11-20T09:55:45.635Z,69.30
2017-11-20T09:58:13.713Z,69.20
2017-11-20T10:03:31.997Z,69.70
2017-11-20T10:05:59.525Z,69.90
2017-11-20T10:08:27.057Z,69.30
2017-11-20T10:10:54.690Z,70.20
2017-11-20T10:13:22.224Z,69.50
2017-11-20T10:15:49.748Z,69.00
2017-11-20T10:18:17.901Z,70.00
2017-11-20T10:20:45.431Z,69.90
2017-11-20T10:23:14.641Z,68.50
2017-11-20T10:32:13.906Z,67.70
2017-11-20T10:34:41.427Z,67.60
2017-11-20T10:37:09.721Z,67.60
2017-11-20T10:39:37.892Z,67.50
2017-11-20T10:42:05.453Z,67.90
2017-11-20T10:44:32.989Z,68.20
2017-11-20T10:47:00.549Z,68.40
2017-11-20T10:49:28.227Z,69.10
2017-11-20T10:51:55.759Z,69.90
2017-11-20T10:54:23.345Z,70.10
2017-11-20T10:56:50.881Z,70.00
2017-11-20T10:59:18.440Z,70.90
2017-11-20T11:01:46.033Z,70.10
2017-11-20T11:04:15.423Z,70.60
2017-11-20T11:06:42.973Z,70.60
2017-11-20T11:09:10.531Z,72.00
2017-11-20T11:11:38.079Z,71.20
2017-11-20T11:14:05.613Z,71.30
2017-11-20T11:16:33.967Z,71.90
2017-11-20T11:19:01.517Z,71.90
2017-11-20T11:21:29.099Z,72.70
2017-11-20T11:23:56.672Z,70.50
2017-11-20T11:26:24.980Z,70.20
2017-11-20T11:28:52.507Z,70.20
2017-11-20T11:31:21.627Z,71.50
2017-11-20T11:33:49.161Z,71.40
2017-11-20T11:36:16.700Z,72.20
2017-11-20T11:38:44.296Z,72.00
2017-11-20T11:41:13.707Z,72.60
2017-11-20T11:43:39.425Z,72.40
2017-11-20T11:46:06.997Z,72.70
2017-11-20T11:48:34.519Z,72.40
2017-11-20T11:51:02.040Z,72.90
2017-11-20T11:53:30.455Z,73.30
2017-11-20T11:55:58.014Z,73.40
2017-11-20T11:58:26.316Z,72.20
2017-11-20T12:00:54.409Z,72.20
2017-11-20T12:03:21.963Z,72.80
2017-11-20T12:05:49.500Z,70.80
2017-11-20T12:08:17.070Z,71.10
2017-11-20T12:10:44.602Z,71.10
2017-11-20T12:13:14.043Z,71.50
2017-11-20T12:15:41.610Z,71.50
2017-11-20T12:18:09.156Z,72.00
2017-11-20T12:20:36.814Z,71.60
2017-11-20T12:23:04.408Z,71.50
2017-11-20T12:25:31.948Z,71.80
2017-11-20T12:27:59.911Z,71.40
2017-11-20T12:30:28.443Z,71.30
2017-11-20T12:32:55.976Z,71.10
2017-11-20T12:35:23.591Z,71.50
2017-11-20T12:37:51.153Z,70.60
2017-11-20T12:40:18.701Z,70.80
2017-11-20T12:42:46.572Z,71.10
2017-11-20T12:45:17.251Z,69.80
2017-11-20T12:47:44.796Z,69.80
2017-11-20T12:50:12.327Z,69.90
2017-11-20T12:52:39.894Z,68.70
2017-11-20T12:55:07.446Z,68.80
2017-11-20T12:57:35.196Z,65.90
2017-11-20T13:00:02.747Z,68.30
2017-11-20T13:02:30.301Z,69.80
2017-11-20T13:04:58.596Z,70.90
2017-11-20T13:07:26.222Z,70.90
2017-11-20T13:09:54.518Z,68.50
2017-11-20T13:12:22.812Z,67.60
2017-11-20T13:14:50.385Z,68.20
2017-11-20T13:17:17.917Z,67.20
2017-11-20T13:19:45.453Z,68.80
2017-11-20T13:22:13.655Z,68.00
2017-11-20T13:32:14.766Z,66.70
2017-11-20T13:42:47.856Z,67.70
2017-11-20T13:45:17.181Z,65.90
2017-11-20T13:47:44.972Z,65.90
2017-11-20T13:50:12.608Z,65.90
2017-11-20T13:52:40.162Z,66.20
2017-11-20T13:55:07.712Z,66.50
2017-11-20T13:57:35.292Z,67.50
2017-11-20T14:00:03.290Z,68.10
2017-11-20T14:02:30.835Z,68.10
2017-11-20T14:04:58.405Z,68.70
2017-11-20T14:07:26.703Z,68.60
2017-11-20T14:09:54.225Z,68.60
2017-11-20T14:12:21.813Z,69.50
2017-11-20T14:14:49.343Z,70.50
2017-11-20T14:17:16.885Z,69.20
2017-11-20T14:19:44.519Z,70.30
2017-11-20T14:22:13.862Z,71.00
2017-11-20T14:24:41.531Z,71.70
2017-11-20T14:27:09.129Z,69.70
2017-11-20T14:29:36.668Z,69.40
2017-11-20T14:32:04.235Z,70.80
2017-11-20T14:34:31.885Z,71.10
2017-11-20T14:36:59.408Z,70.20
2017-11-20T14:39:27.710Z,71.70
2017-11-20T14:41:55.419Z,71.60
2017-11-20T14:44:24.001Z,73.60
2017-11-20T14:46:53.190Z,73.50
2017-11-20T14:49:22.109Z,73.90
2017-11-20T14:54:54.594Z,73.50
2017-11-20T14:57:22.144Z,73.30
2017-11-20T14:59:50.485Z,74.20
2017-11-20T15:02:18.115Z,74.20
2017-11-20T15:04:45.644Z,74.50
2017-11-20T15:07:14.446Z,75.40
2017-11-20T15:15:42.119Z,75.20
2017-11-20T15:18:09.641Z,76.60
2017-11-20T15:20:37.173Z,77.00
2017-11-20T15:23:04.850Z,76.60
2017-11-20T15:25:32.388Z,77.00
2017-11-20T15:27:59.926Z,77.10
2017-11-20T15:30:27.489Z,77.00
2017-11-20T15:32:55.901Z,76.50
2017-11-20T15:35:23.448Z,76.50
2017-11-20T15:37:51.283Z,76.60
2017-11-20T15:40:19.927Z,76.40
2017-11-20T15:42:47.820Z,76.40
2017-11-20T15:45:17.413Z,76.60
2017-11-20T15:47:45.178Z,76.50
2017-11-20T15:50:13.665Z,75.10
2017-11-20T15:52:41.243Z,74.70
2017-11-20T15:55:08.777Z,74.30
2017-11-20T15:57:36.332Z,74.20
2017-11-20T16:00:03.914Z,74.00
2017-11-20T16:02:32.208Z,74.70
2017-11-20T16:05:00.504Z,74.90
2017-11-20T16:07:28.077Z,74.90
2017-11-20T16:09:55.602Z,74.90
2017-11-20T16:12:23.908Z,74.70
2017-11-20T16:14:51.451Z,74.70
2017-11-20T16:17:18.980Z,74.70
2017-11-20T16:19:47.363Z,74.40
2017-11-20T16:22:16.472Z,74.30
2017-11-20T16:24:44.008Z,74.80
2017-11-20T16:27:12.310Z,75.70
2017-11-20T16:29:39.924Z,75.70
2017-11-20T16:32:07.476Z,75.30
2017-11-20T16:34:35.031Z,75.40
2017-11-20T16:37:02.612Z,75.20
2017-11-20T16:39:30.820Z,74.70
2017-11-20T16:41:58.360Z,75.00
2017-11-20T16:44:25.950Z,75.20
2017-11-20T16:46:53.499Z,75.10
2017-11-20T16:49:21.038Z,75.70
2017-11-20T16:51:49.368Z,76.20
2017-11-20T16:54:16.896Z,76.20
2017-11-20T16:56:56.311Z,76.50
2017-11-20T16:59:24.644Z,76.60
2017-11-20T17:02:01.117Z,76.60
2017-11-20T17:04:28.673Z,76.60
2017-11-20T17:06:56.230Z,76.80
2017-11-20T17:09:23.794Z,76.90
2017-11-20T17:11:51.337Z,77.00
2017-11-20T17:14:18.907Z,76.90
2017-11-20T17:16:46.512Z,77.10
2017-11-20T17:19:25.474Z,76.90
2017-11-20T17:26:23.414Z,77.00
2017-11-20T17:28:50.952Z,77.20
2017-11-20T17:31:18.502Z,77.10
2017-11-20T17:33:46.089Z,76.80
2017-11-20T17:36:16.613Z,76.30
2017-11-20T17:38:44.154Z,75.80
2017-11-20T17:41:11.880Z,75.50
2017-11-20T17:43:39.453Z,76.00
2017-11-20T17:46:06.996Z,75.50
2017-11-20T17:48:35.305Z,75.80
2017-11-20T17:51:02.853Z,75.20
2017-11-20T17:53:30.423Z,75.40
2017-11-20T17:55:58.012Z,75.40
2017-11-20T17:58:25.545Z,74.90
2017-11-20T18:00:53.084Z,74.90
2017-11-20T18:03:20.665Z,75.00
2017-11-20T18:05:48.202Z,74.30
2017-11-20T18:08:16.589Z,74.40
2017-11-20T18:10:44.577Z,74.10
2017-11-20T18:13:12.129Z,74.10
2017-11-20T18:15:39.683Z,74.00
2017-11-20T18:18:08.212Z,74.10
2017-11-20T18:20:35.831Z,73.80
2017-11-20T18:23:03.406Z,74.00
2017-11-20T18:25:30.971Z,74.60
2017-11-20T18:27:58.505Z,75.30
2017-11-20T18:30:26.057Z,73.40
2017-11-20T18:32:53.648Z,72.60
2017-11-20T18:35:21.175Z,72.90
2017-11-20T18:37:48.745Z,72.90
2017-11-20T18:40:16.544Z,71.00
2017-11-20T18:42:44.917Z,70.60
2017-11-20T18:45:14.149Z,70.20
2017-11-20T18:47:41.719Z,70.00
2017-11-20T18:50:09.854Z,70.40
2017-11-20T18:52:37.419Z,69.40
2017-11-20T18:55:05.749Z,69.70
2017-11-20T18:57:33.560Z,67.90
2017-11-20T19:00:13.769Z,68.40
2017-11-20T19:05:55.063Z,68.30
2017-11-20T19:08:34.472Z,68.30
2017-11-20T19:11:04.556Z,68.70
2017-11-20T19:13:32.861Z,68.00
2017-11-20T19:16:00.404Z,67.90
2017-11-20T19:18:27.985Z,67.60
2017-11-20T19:20:55.692Z,67.20
2017-11-20T19:23:24.002Z,66.90
2017-11-20T19:25:54.775Z,66.80
2017-11-20T19:28:22.304Z,67.60
2017-11-20T19:30:49.840Z,67.10
2017-11-20T19:33:18.216Z,67.60
2017-11-20T19:35:46.514Z,68.00
2017-11-20T19:38:25.164Z,67.20
2017-11-20T19:43:27.981Z,66.80
2017-11-20T19:45:55.525Z,66.80
2017-11-20T19:48:23.074Z,67.30
2017-11-20T19:50:51.305Z,65.90
2017-11-20T19:53:19.654Z,66.80
2017-11-20T19:55:47.188Z,66.70
2017-11-20T19:58:16.419Z,65.70
2017-11-20T20:00:43.956Z,65.20
2017-11-20T20:03:11.526Z,65.70
2017-11-20T20:05:39.985Z,66.50
2017-11-20T20:08:07.586Z,67.50
2017-11-20T20:10:35.959Z,68.30
2017-11-20T20:13:03.587Z,68.30
2017-11-20T20:15:43.807Z,69.40
2017-11-20T20:18:11.397Z,69.00
2017-11-20T20:20:38.921Z,69.80
2017-11-20T20:23:06.451Z,70.10
2017-11-20T20:25:34.033Z,70.70
2017-11-20T20:28:01.570Z,72.10
2017-11-20T20:30:29.133Z,74.30
2017-11-20T20:32:57.317Z,76.00
2017-11-20T20:35:25.688Z,77.80
2017-11-20T20:37:53.380Z,77.80
2017-11-20T20:40:20.967Z,78.00
2017-11-20T20:42:48.487Z,78.30
2017-11-20T20:45:16.421Z,79.00
2017-11-20T20:47:44.032Z,80.00
2017-11-20T20:50:11.617Z,80.40
2017-11-20T20:52:40.212Z,80.90
2017-11-20T20:55:09.592Z,81.70
2017-11-20T20:57:35.521Z,82.00
2017-11-20T21:00:03.300Z,82.30
2017-11-20T21:02:30.862Z,82.70
2017-11-20T21:04:59.229Z,83.70
2017-11-20T21:07:26.791Z,84.00
2017-11-20T21:10:00.097Z,84.80
2017-11-20T21:12:27.722Z,85.40
2017-11-20T21:14:55.266Z,85.20
2017-11-20T21:17:22.845Z,86.00
2017-11-20T21:19:50.408Z,86.20
2017-11-20T21:22:17.953Z,86.80
2017-11-20T21:24:45.510Z,86.40
2017-11-20T21:27:14.637Z,86.60
2017-11-20T21:29:42.275Z,87.40
2017-11-20T21:32:09.832Z,87.20
2017-11-20T21:34:37.442Z,87.70
2017-11-20T21:37:04.971Z,87.80
2017-11-20T21:39:32.548Z,87.30
2017-11-20T21:42:00.073Z,87.20
2017-11-20T21:44:27.596Z,87.00
2017-11-20T21:46:55.234Z,87.00
2017-11-20T21:49:22.769Z,86.90
2017-11-20T21:51:50.325Z,87.50
2017-11-20T21:54:18.192Z,86.70
2017-11-20T21:56:45.878Z,87.00
2017-11-20T21:59:14.640Z,86.70
2017-11-20T22:01:42.376Z,87.40
2017-11-20T22:04:09.944Z,87.10
2017-11-20T22:06:37.512Z,86.60
2017-11-20T22:09:05.207Z,87.10
2017-11-20T22:11:33.915Z,87.30
2017-11-20T22:14:02.223Z,86.70
2017-11-20T22:16:29.782Z,86.70
2017-11-20T22:18:57.309Z,87.60
2017-11-20T22:21:25.713Z,87.20
2017-11-20T22:23:53.296Z,87.20
2017-11-20T22:26:20.896Z,87.40
2017-11-20T22:28:49.214Z,87.40
2017-11-20T22:31:16.945Z,87.40
2017-11-20T22:33:44.623Z,87.20
2017-11-20T22:36:13.895Z,87.70
2017-11-20T22:38:41.807Z,87.70
2017-11-20T22:41:09.355Z,87.20
2017-11-20T22:43:36.893Z,87.30
2017-11-20T22:46:04.508Z,87.30
2017-11-20T22:48:32.029Z,86.30
2017-11-20T22:50:59.548Z,86.80
2017-11-20T22:53:27.266Z,86.60
2017-11-20T22:55:55.312Z,86.30
2017-11-20T22:58:22.852Z,85.70
2017-11-20T23:00:50.408Z,85.70
2017-11-20T23:03:18.710Z,85.50
2017-11-20T23:05:46.278Z,84.80
2017-11-20T23:08:16.667Z,84.80
2017-11-20T23:10:44.222Z,85.20
2017-11-20T23:13:11.766Z,84.50
2017-11-20T23:15:39.344Z,84.00
2017-11-20T23:18:07.636Z,83.30
2017-11-20T23:20:36.290Z,83.10
2017-11-20T23:23:04.653Z,83.40
2017-11-20T23:25:32.177Z,83.20
2017-11-20T23:27:59.705Z,83.10
2017-11-20T23:30:28.073Z,82.30
2017-11-20T23:32:55.600Z,82.20
2017-11-20T23:35:23.893Z,81.40
2017-11-20T23:37:51.452Z,81.40
2017-11-20T23:40:18.977Z,80.80
2017-11-20T23:42:46.496Z,81.20
2017-11-20T23:45:16.514Z,80.90
2017-11-20T23:47:44.042Z,81.30
2017-11-20T23:50:11.632Z,81.00
2017-11-20T23:52:39.988Z,81.90
2017-11-20T23:55:07.517Z,81.80
2017-11-20T23:57:35.467Z,81.10
